Time;durP1;ratioP1;P1;durP2;ratioP2;P2;SDS_P1;SDS_P2;PMS_P1;PMS_P2;Temp;Humidity;BMP_temperature;BMP_pressure;BME280_temperature;BME280_humidity;BME280_pressure;Samples;Min_cycle;Max_cycle;Signal;HPM_P1;HPM_P2
2019/09/08 00:02:09;;;;;;;3.3;2;;;;;;;;;;;;;
2019/09/08 00:04:34;;;;;;;4.7;2.1;;;;;;;;;;;;;
2019/09/08 00:07:00;;;;;;;3.4;2.4;;;;;;;;;;;;;
2019/09/08 00:09:25;;;;;;;3.4;2.3;;;;;;;;;;;;;
2019/09/08 00:11:50;;;;;;;3.8;2.4;;;;;;;;;;;;;
2019/09/08 00:14:15;;;;;;;4.3;2.4;;;;;;;;;;;;;
2019/09/08 00:16:40;;;;;;;4.3;2.6;;;;;;;;;;;;;
2019/09/08 00:19:05;;;;;;;6.1;3.2;;;;;;;;;;;;;
2019/09/08 00:21:31;;;;;;;5.6;3;;;;;;;;;;;;;
2019/09/08 00:23:56;;;;;;;4.8;2.8;;;;;;;;;;;;;
2019/09/08 00:26:21;;;;;;;4.9;3;;;;;;;;;;;;;
2019/09/08 00:28:46;;;;;;;4;2.7;;;;;;;;;;;;;
2019/09/08 00:31:11;;;;;;;3.5;2.3;;;;;;;;;;;;;
2019/09/08 00:33:37;;;;;;;5.3;2.5;;;;;;;;;;;;;
2019/09/08 00:36:01;;;;;;;2.5;2.2;;;;;;;;;;;;;
2019/09/08 00:38:26;;;;;;;3.8;2.2;;;;;;;;;;;;;
2019/09/08 00:40:51;;;;;;;4;1.9;;;;;;;;;;;;;
2019/09/08 00:43:16;;;;;;;3.1;1.9;;;;;;;;;;;;;
2019/09/08 00:45:42;;;;;;;2.6;1.7;;;;;;;;;;;;;
2019/09/08 00:48:07;;;;;;;2.1;1.7;;;;;;;;;;;;;
2019/09/08 00:50:32;;;;;;;2.1;1.6;;;;;;;;;;;;;
2019/09/08 00:52:57;;;;;;;2.5;1.6;;;;;;;;;;;;;
2019/09/08 00:55:22;;;;;;;2.8;1.5;;;;;;;;;;;;;
2019/09/08 00:57:47;;;;;;;1.9;1.5;;;;;;;;;;;;;
2019/09/08 01:00:13;;;;;;;2;1.7;;;;;;;;;;;;;
2019/09/08 01:02:38;;;;;;;2.4;1.9;;;;;;;;;;;;;
2019/09/08 01:05:03;;;;;;;2.4;1.9;;;;;;;;;;;;;
2019/09/08 01:07:28;;;;;;;3.3;1.8;;;;;;;;;;;;;
2019/09/08 01:09:53;;;;;;;3.1;2;;;;;;;;;;;;;
2019/09/08 01:12:18;;;;;;;2.3;1.6;;;;;;;;;;;;;
2019/09/08 01:14:43;;;;;;;3.9;1.8;;;;;;;;;;;;;
2019/09/08 01:17:08;;;;;;;2.1;1.6;;;;;;;;;;;;;
2019/09/08 01:19:33;;;;;;;3;1.6;;;;;;;;;;;;;
2019/09/08 01:21:58;;;;;;;2.2;1.3;;;;;;;;;;;;;
2019/09/08 01:24:23;;;;;;;2.7;1.7;;;;;;;;;;;;;
2019/09/08 01:26:49;;;;;;;3.1;1.7;;;;;;;;;;;;;
2019/09/08 01:29:14;;;;;;;3.3;1.6;;;;;;;;;;;;;
2019/09/08 01:31:39;;;;;;;2.7;1.6;;;;;;;;;;;;;
2019/09/08 01:34:04;;;;;;;2.3;1.8;;;;;;;;;;;;;
2019/09/08 01:36:29;;;;;;;3.6;1.9;;;;;;;;;;;;;
2019/09/08 01:38:54;;;;;;;2;1.7;;;;;;;;;;;;;
2019/09/08 01:41:19;;;;;;;3.2;1.8;;;;;;;;;;;;;
2019/09/08 01:43:44;;;;;;;2.1;1.6;;;;;;;;;;;;;
2019/09/08 01:46:09;;;;;;;3.3;1.9;;;;;;;;;;;;;
2019/09/08 01:48:34;;;;;;;2.5;1.7;;;;;;;;;;;;;
2019/09/08 01:51:00;;;;;;;2.3;2;;;;;;;;;;;;;
2019/09/08 01:53:25;;;;;;;3.2;2.3;;;;;;;;;;;;;
2019/09/08 01:55:50;;;;;;;3.7;2.7;;;;;;;;;;;;;
2019/09/08 01:58:15;;;;;;;3.9;2.9;;;;;;;;;;;;;
2019/09/08 02:00:40;;;;;;;3.7;3.2;;;;;;;;;;;;;
2019/09/08 02:03:05;;;;;;;4.8;3.1;;;;;;;;;;;;;
2019/09/08 02:05:31;;;;;;;6;3.9;;;;;;;;;;;;;
2019/09/08 02:07:56;;;;;;;5.4;3.9;;;;;;;;;;;;;
2019/09/08 02:10:21;;;;;;;5.5;3.7;;;;;;;;;;;;;
2019/09/08 02:12:46;;;;;;;6.1;3.7;;;;;;;;;;;;;
2019/09/08 02:15:11;;;;;;;6.2;3.9;;;;;;;;;;;;;
2019/09/08 02:17:36;;;;;;;5.7;4;;;;;;;;;;;;;
2019/09/08 02:20:01;;;;;;;6.3;4.2;;;;;;;;;;;;;
2019/09/08 02:22:26;;;;;;;5.5;3.7;;;;;;;;;;;;;
2019/09/08 02:24:52;;;;;;;6.5;4.2;;;;;;;;;;;;;
2019/09/08 02:27:17;;;;;;;4.9;3.8;;;;;;;;;;;;;
2019/09/08 02:29:42;;;;;;;6.8;4.2;;;;;;;;;;;;;
2019/09/08 02:32:07;;;;;;;5.8;3.9;;;;;;;;;;;;;
2019/09/08 02:34:32;;;;;;;5.2;3.8;;;;;;;;;;;;;
2019/09/08 02:36:57;;;;;;;4.8;3.5;;;;;;;;;;;;;
2019/09/08 02:39:22;;;;;;;4.9;3.3;;;;;;;;;;;;;
2019/09/08 02:41:47;;;;;;;5.1;3.1;;;;;;;;;;;;;
2019/09/08 02:44:13;;;;;;;4.8;2.9;;;;;;;;;;;;;
2019/09/08 02:46:38;;;;;;;4.3;2.8;;;;;;;;;;;;;
2019/09/08 02:49:03;;;;;;;3.9;2.5;;;;;;;;;;;;;
2019/09/08 02:51:28;;;;;;;5.1;2.5;;;;;;;;;;;;;
2019/09/08 02:53:53;;;;;;;2.7;2.2;;;;;;;;;;;;;
2019/09/08 02:56:18;;;;;;;3.1;2.1;;;;;;;;;;;;;
2019/09/08 02:58:43;;;;;;;3;2.3;;;;;;;;;;;;;
2019/09/08 03:01:08;;;;;;;4.2;2.5;;;;;;;;;;;;;
2019/09/08 03:03:33;;;;;;;3.5;2.2;;;;;;;;;;;;;
2019/09/08 03:05:59;;;;;;;2.7;1.8;;;;;;;;;;;;;
2019/09/08 03:08:24;;;;;;;2.6;2;;;;;;;;;;;;;
2019/09/08 03:10:49;;;;;;;4.9;2.2;;;;;;;;;;;;;
2019/09/08 03:13:14;;;;;;;3.7;2;;;;;;;;;;;;;
2019/09/08 03:15:39;;;;;;;2.5;1.8;;;;;;;;;;;;;
2019/09/08 03:18:04;;;;;;;3.1;1.9;;;;;;;;;;;;;
2019/09/08 03:20:29;;;;;;;2.1;1.6;;;;;;;;;;;;;
2019/09/08 03:22:54;;;;;;;2.2;1.7;;;;;;;;;;;;;
2019/09/08 03:25:19;;;;;;;2.1;1.8;;;;;;;;;;;;;
2019/09/08 03:27:44;;;;;;;5.3;2;;;;;;;;;;;;;
2019/09/08 03:30:10;;;;;;;3.4;2;;;;;;;;;;;;;
2019/09/08 03:32:35;;;;;;;2.7;2;;;;;;;;;;;;;
2019/09/08 03:35:00;;;;;;;3.2;2;;;;;;;;;;;;;
2019/09/08 03:37:25;;;;;;;2.6;1.9;;;;;;;;;;;;;
2019/09/08 03:39:50;;;;;;;2.5;2;;;;;;;;;;;;;
2019/09/08 03:42:15;;;;;;;3.1;2.1;;;;;;;;;;;;;
2019/09/08 03:44:40;;;;;;;2.8;2.3;;;;;;;;;;;;;
2019/09/08 03:47:05;;;;;;;4.8;2.1;;;;;;;;;;;;;
2019/09/08 03:49:30;;;;;;;5.2;2.6;;;;;;;;;;;;;
2019/09/08 03:51:55;;;;;;;2.4;2.2;;;;;;;;;;;;;
2019/09/08 03:54:21;;;;;;;4.9;2.5;;;;;;;;;;;;;
2019/09/08 03:56:46;;;;;;;3.6;2.6;;;;;;;;;;;;;
2019/09/08 03:59:11;;;;;;;4.2;2.5;;;;;;;;;;;;;
2019/09/08 04:02:28;;;;;;;3.9;2.5;;;;;;;13.36;91.30566;1003.972;;;;
2019/09/08 04:04:53;;;;;;;4.7;3.1;;;;;;;13.37;90.17871;1003.975;;;;
2019/09/08 04:07:18;;;;;;;5.3;3;;;;;;;13.43;89.85547;1003.954;;;;
2019/09/08 04:09:43;;;;;;;5.2;3.4;;;;;;;13.37;90.22461;1003.942;;;;
2019/09/08 04:12:08;;;;;;;4.6;3.2;;;;;;;13.47;90.31445;1003.994;;;;
2019/09/08 04:14:33;;;;;;;4.5;3.1;;;;;;;13.47;89.59961;1003.959;;;;
2019/09/08 04:16:58;;;;;;;5.7;3.4;;;;;;;13.34;90.08105;1003.963;;;;
2019/09/08 04:19:24;;;;;;;5.8;3.4;;;;;;;13.41;89.64453;1003.964;;;;
2019/09/08 04:21:49;;;;;;;4.9;3.5;;;;;;;13.47;89.92285;1003.962;;;;
2019/09/08 04:24:14;;;;;;;4.5;3.4;;;;;;;13.75;89.16113;1003.93;;;;
2019/09/08 04:26:39;;;;;;;4.3;3.2;;;;;;;13.81;88.80371;1003.943;;;;
2019/09/08 04:29:04;;;;;;;4.7;3.3;;;;;;;13.76;89.47461;1003.927;;;;
2019/09/08 04:31:29;;;;;;;4.7;2.7;;;;;;;13.82;88.66699;1003.901;;;;
2019/09/08 04:33:54;;;;;;;4.1;3;;;;;;;13.9;88.20996;1003.94;;;;
2019/09/08 04:36:19;;;;;;;4.8;2.9;;;;;;;13.87;88.27344;1003.985;;;;
2019/09/08 04:38:44;;;;;;;3.7;2.8;;;;;;;13.91;89.03125;1003.967;;;;
2019/09/08 04:41:09;;;;;;;4.1;3.2;;;;;;;13.73;88.77539;1003.931;;;;
2019/09/08 04:43:34;;;;;;;5.4;3.4;;;;;;;13.63;89.25293;1003.94;;;;
2019/09/08 04:46:00;;;;;;;4.4;3.2;;;;;;;13.83;89.63965;1003.934;;;;
2019/09/08 04:48:25;;;;;;;5.8;3.4;;;;;;;13.68;90.55371;1003.948;;;;
2019/09/08 04:50:50;;;;;;;4.7;3;;;;;;;13.73;90.66797;1003.977;;;;
2019/09/08 04:53:15;;;;;;;3.7;3;;;;;;;13.71;90.4668;1003.944;;;;
2019/09/08 04:55:40;;;;;;;3.7;2.6;;;;;;;13.75;89.74023;1003.972;;;;
2019/09/08 04:58:05;;;;;;;4.3;2.7;;;;;;;13.71;89.48633;1003.938;;;;
2019/09/08 05:00:30;;;;;;;3.5;2.5;;;;;;;13.85;89.7373;1004.01;;;;
2019/09/08 05:02:56;;;;;;;4.2;2.7;;;;;;;14.15;88.49414;1003.986;;;;
2019/09/08 05:05:21;;;;;;;4.1;2.4;;;;;;;13.91;89.80566;1004;;;;
2019/09/08 05:07:46;;;;;;;3.5;2.5;;;;;;;13.97;89.29785;1004.032;;;;
2019/09/08 05:10:11;;;;;;;5;2.6;;;;;;;13.96;88.89258;1004.071;;;;
2019/09/08 05:12:36;;;;;;;4.9;2.6;;;;;;;14.22;86.83301;1004.067;;;;
2019/09/08 05:15:01;;;;;;;3.3;2.7;;;;;;;14.08;87.80957;1004.066;;;;
2019/09/08 05:17:26;;;;;;;3.3;2.8;;;;;;;14.11;88.6582;1004.071;;;;
2019/09/08 05:19:51;;;;;;;3.5;2.5;;;;;;;13.87;89.47168;1004.043;;;;
2019/09/08 05:22:17;;;;;;;3.1;2.3;;;;;;;13.99;89.74023;1004.061;;;;
2019/09/08 05:24:42;;;;;;;4.5;2.3;;;;;;;14.21;88.96875;1004.108;;;;
2019/09/08 05:27:07;;;;;;;3.2;2.4;;;;;;;14.18;89.99805;1004.092;;;;
2019/09/08 05:29:32;;;;;;;2.8;2.5;;;;;;;13.95;90.05566;1004.124;;;;
2019/09/08 05:31:57;;;;;;;2.8;2.3;;;;;;;13.77;91.02344;1004.066;;;;
2019/09/08 05:34:22;;;;;;;3.1;2.3;;;;;;;13.87;90.91406;1004.055;;;;
2019/09/08 05:36:47;;;;;;;4.3;2.8;;;;;;;13.98;89.625;1004.111;;;;
2019/09/08 05:39:12;;;;;;;4.8;2.9;;;;;;;14.08;89.49316;1004.122;;;;
2019/09/08 05:41:37;;;;;;;4.4;3;;;;;;;13.92;90.12891;1004.148;;;;
2019/09/08 05:44:02;;;;;;;4.4;2.6;;;;;;;13.97;90.08203;1004.153;;;;
2019/09/08 05:46:27;;;;;;;4.4;2.9;;;;;;;14.09;88.96582;1004.148;;;;
2019/09/08 05:48:53;;;;;;;3.9;2.6;;;;;;;13.99;88.86523;1004.13;;;;
2019/09/08 05:51:18;;;;;;;3.8;2.7;;;;;;;14.11;89.15234;1004.118;;;;
2019/09/08 05:53:43;;;;;;;3.3;2.8;;;;;;;14.12;89.62891;1004.091;;;;
2019/09/08 05:56:08;;;;;;;4.5;3;;;;;;;13.82;90.54883;1004.065;;;;
2019/09/08 05:58:33;;;;;;;3.6;2.8;;;;;;;13.78;91.55469;1004.003;;;;
2019/09/08 06:00:58;;;;;;;4.9;3.1;;;;;;;13.97;90.94824;1004.006;;;;
2019/09/08 06:03:23;;;;;;;5.6;3.2;;;;;;;14.23;90.24023;1003.953;;;;
2019/09/08 06:05:49;;;;;;;4.9;3;;;;;;;14.38;89.19629;1003.895;;;;
2019/09/08 06:08:14;;;;;;;4.5;3.2;;;;;;;14.48;88.59473;1003.819;;;;
2019/09/08 06:10:39;;;;;;;5.1;3.1;;;;;;;14.68;87.22461;1003.683;;;;
2019/09/08 06:13:04;;;;;;;4.3;2.9;;;;;;;14.78;86.72559;1003.519;;;;
2019/09/08 06:15:29;;;;;;;4.4;3.1;;;;;;;14.7;88.04883;1003.493;;;;
2019/09/08 06:17:54;;;;;;;4.4;3;;;;;;;14.53;88.6748;1003.464;;;;
2019/09/08 06:20:19;;;;;;;5.2;3.3;;;;;;;14.19;89.86328;1003.43;;;;
2019/09/08 06:22:44;;;;;;;3.7;3.1;;;;;;;14.33;89.44238;1003.401;;;;
2019/09/08 06:25:15;;;;;;;4.8;3.7;;;;;;;14.26;89.66895;1003.403;;;;
2019/09/08 06:27:40;;;;;;;4.9;4.1;;;;;;;14.35;88.9707;1003.407;;;;
2019/09/08 06:30:06;;;;;;;6.2;4.8;;;;;;;14.08;89.47168;1003.452;;;;
2019/09/08 06:32:31;;;;;;;6.3;5;;;;;;;14.12;88.66016;1003.491;;;;
2019/09/08 06:34:56;;;;;;;7.5;5.1;;;;;;;14.17;89.24609;1003.575;;;;
2019/09/08 06:37:21;;;;;;;7.7;5.9;;;;;;;14.54;86.71191;1003.569;;;;
2019/09/08 06:39:46;;;;;;;8.3;5.6;;;;;;;14.55;85.39648;1003.56;;;;
2019/09/08 06:42:11;;;;;;;8.8;5.7;;;;;;;14.43;86.57324;1003.622;;;;
2019/09/08 06:44:36;;;;;;;8.8;5.3;;;;;;;14.2;87.59082;1003.748;;;;
2019/09/08 06:47:01;;;;;;;9.1;5.8;;;;;;;13.98;89.12695;1003.793;;;;
2019/09/08 06:49:26;;;;;;;9.3;6.8;;;;;;;14;88.94531;1003.825;;;;
2019/09/08 06:51:51;;;;;;;9.3;6.5;;;;;;;14.14;89.01172;1003.826;;;;
2019/09/08 06:54:17;;;;;;;10.3;6.1;;;;;;;14.36;88.75391;1003.875;;;;
2019/09/08 06:56:42;;;;;;;10.9;6.8;;;;;;;14.42;88.84863;1003.939;;;;
2019/09/08 06:59:07;;;;;;;10.5;6.8;;;;;;;14.57;87.72461;1003.995;;;;
2019/09/08 07:01:32;;;;;;;10.1;7.3;;;;;;;14.35;86.05078;1004;;;;
2019/09/08 07:03:57;;;;;;;11.6;8.7;;;;;;;14.15;88.22656;1004.042;;;;
2019/09/08 07:06:22;;;;;;;11.7;8.2;;;;;;;14.21;88.1582;1004.06;;;;
2019/09/08 07:08:47;;;;;;;10.8;7.6;;;;;;;14.6;87.55664;1004.096;;;;
2019/09/08 07:11:12;;;;;;;10.6;8.2;;;;;;;14.66;86.50488;1004.044;;;;
2019/09/08 07:13:37;;;;;;;12.7;8.7;;;;;;;14.71;84.95313;1004.033;;;;
2019/09/08 07:16:03;;;;;;;12.4;9;;;;;;;14.62;86.69336;1004.055;;;;
2019/09/08 07:18:28;;;;;;;12.3;9;;;;;;;14.59;87.54199;1004.058;;;;
2019/09/08 07:20:53;;;;;;;11.6;8.9;;;;;;;14.61;86.78223;1004.101;;;;
2019/09/08 07:23:18;;;;;;;13;9.1;;;;;;;14.57;86.66016;1004.12;;;;
2019/09/08 07:25:43;;;;;;;12.4;9.1;;;;;;;14.53;87.15918;1004.108;;;;
2019/09/08 07:28:08;;;;;;;15.7;9.2;;;;;;;14.69;87.62891;1004.123;;;;
2019/09/08 07:30:33;;;;;;;13.2;8.6;;;;;;;14.63;87.48145;1004.181;;;;
2019/09/08 07:32:58;;;;;;;10;8.2;;;;;;;14.64;86.71875;1004.22;;;;
2019/09/08 07:35:23;;;;;;;11.3;8;;;;;;;14.65;86.44336;1004.222;;;;
2019/09/08 07:37:48;;;;;;;9.4;7.4;;;;;;;14.88;84.01465;1004.199;;;;
2019/09/08 07:40:13;;;;;;;11.6;7.9;;;;;;;15.16;83.09863;1004.221;;;;
2019/09/08 07:42:39;;;;;;;13.6;9.3;;;;;;;14.55;85.32715;1004.239;;;;
2019/09/08 07:45:04;;;;;;;11.5;8.3;;;;;;;14.53;86.12109;1004.222;;;;
2019/09/08 07:47:29;;;;;;;14.8;8.8;;;;;;;14.63;86.60352;1004.196;;;;
2019/09/08 07:49:54;;;;;;;15.3;8.4;;;;;;;;;;;;;
2019/09/08 07:52:19;;;;;;;11.1;7.5;;;;;;;;;;;;;
2019/09/08 07:54:45;;;;;;;9.4;7.4;;;;;;;;;;;;;
2019/09/08 07:57:09;;;;;;;11.8;8.5;;;;;;;;;;;;;
2019/09/08 07:59:34;;;;;;;10.5;8.4;;;;;;;;;;;;;
2019/09/08 08:01:59;;;;;;;11.9;8.3;;;;;;;;;;;;;
2019/09/08 08:04:25;;;;;;;9.6;7.5;;;;;;;;;;;;;
2019/09/08 08:06:50;;;;;;;10.9;8;;;;;;;;;;;;;
2019/09/08 08:09:15;;;;;;;11.9;8.1;;;;;;;;;;;;;
2019/09/08 08:11:40;;;;;;;9.9;7.5;;;;;;;;;;;;;
2019/09/08 08:14:05;;;;;;;11.7;7.7;;;;;;;;;;;;;
2019/09/08 08:16:30;;;;;;;12.7;8.8;;;;;;;;;;;;;
2019/09/08 08:18:55;;;;;;;11.1;8.4;;;;;;;;;;;;;
2019/09/08 08:21:20;;;;;;;10.6;7.7;;;;;;;;;;;;;
2019/09/08 08:23:45;;;;;;;9.8;7.7;;;;;;;;;;;;;
2019/09/08 08:26:11;;;;;;;10.6;8.4;;;;;;;;;;;;;
2019/09/08 08:28:36;;;;;;;10.1;8.4;;;;;;;;;;;;;
2019/09/08 08:31:01;;;;;;;10.4;8;;;;;;;;;;;;;
2019/09/08 08:33:26;;;;;;;10.5;7.8;;;;;;;;;;;;;
2019/09/08 08:35:51;;;;;;;10.4;7.3;;;;;;;;;;;;;
2019/09/08 08:38:16;;;;;;;10.2;7.3;;;;;;;;;;;;;
2019/09/08 08:40:41;;;;;;;8.3;6.2;;;;;;;;;;;;;
2019/09/08 08:43:06;;;;;;;7.5;5.7;;;;;;;;;;;;;
2019/09/08 08:45:31;;;;;;;8.8;7.1;;;;;;;;;;;;;
2019/09/08 08:47:56;;;;;;;10.3;6.7;;;;;;;;;;;;;
2019/09/08 08:50:21;;;;;;;8.8;6.4;;;;;;;;;;;;;
2019/09/08 08:52:47;;;;;;;9.9;6.7;;;;;;;;;;;;;
2019/09/08 08:55:12;;;;;;;9;6.6;;;;;;;;;;;;;
2019/09/08 08:57:37;;;;;;;7.8;6.3;;;;;;;;;;;;;
2019/09/08 09:00:02;;;;;;;9.2;6.8;;;;;;;;;;;;;
2019/09/08 09:02:27;;;;;;;9.7;6.8;;;;;;;;;;;;;
2019/09/08 09:04:52;;;;;;;10.5;7.1;;;;;;;;;;;;;
2019/09/08 09:07:17;;;;;;;10.2;6.4;;;;;;;;;;;;;
2019/09/08 09:09:42;;;;;;;8.7;6.6;;;;;;;;;;;;;
2019/09/08 09:12:07;;;;;;;8.9;6.3;;;;;;;;;;;;;
2019/09/08 09:14:33;;;;;;;9.9;6.7;;;;;;;;;;;;;
2019/09/08 09:16:58;;;;;;;8.4;6.2;;;;;;;;;;;;;
2019/09/08 09:19:23;;;;;;;10.1;7.1;;;;;;;;;;;;;
2019/09/08 09:21:48;;;;;;;9.1;6.8;;;;;;;;;;;;;
2019/09/08 09:24:13;;;;;;;10.7;7;;;;;;;;;;;;;
2019/09/08 09:26:38;;;;;;;9.4;6.8;;;;;;;;;;;;;
2019/09/08 09:29:03;;;;;;;9.2;6.9;;;;;;;;;;;;;
2019/09/08 09:31:28;;;;;;;9.5;7.1;;;;;;;;;;;;;
2019/09/08 09:33:53;;;;;;;10.6;7.4;;;;;;;;;;;;;
2019/09/08 09:36:18;;;;;;;8.9;7.3;;;;;;;;;;;;;
2019/09/08 09:38:44;;;;;;;12.3;7.4;;;;;;;;;;;;;
2019/09/08 09:41:09;;;;;;;11.5;7.8;;;;;;;;;;;;;
2019/09/08 09:43:34;;;;;;;10.9;7.6;;;;;;;;;;;;;
2019/09/08 09:45:59;;;;;;;10.4;8;;;;;;;;;;;;;
2019/09/08 09:48:24;;;;;;;11.7;8.3;;;;;;;;;;;;;
2019/09/08 09:50:49;;;;;;;10;7.8;;;;;;;;;;;;;
2019/09/08 09:53:14;;;;;;;11.2;8.5;;;;;;;;;;;;;
2019/09/08 09:55:40;;;;;;;10.8;7.9;;;;;;;;;;;;;
2019/09/08 09:58:05;;;;;;;9.9;7.3;;;;;;;;;;;;;
2019/09/08 10:00:30;;;;;;;11.7;8.5;;;;;;;;;;;;;
2019/09/08 10:02:55;;;;;;;9.8;7.4;;;;;;;;;;;;;
2019/09/08 10:05:20;;;;;;;9;7.5;;;;;;;;;;;;;
2019/09/08 10:07:45;;;;;;;9.3;7.1;;;;;;;;;;;;;
2019/09/08 10:10:10;;;;;;;8.1;6.6;;;;;;;;;;;;;
2019/09/08 10:12:35;;;;;;;8.5;6.1;;;;;;;;;;;;;
2019/09/08 10:15:00;;;;;;;8.9;7;;;;;;;;;;;;;
2019/09/08 10:17:26;;;;;;;8.4;6.9;;;;;;;;;;;;;
2019/09/08 10:19:51;;;;;;;10.1;6.3;;;;;;;;;;;;;
2019/09/08 10:22:16;;;;;;;9.5;6.6;;;;;;;;;;;;;
2019/09/08 10:24:41;;;;;;;7.9;6.7;;;;;;;;;;;;;
2019/09/08 10:27:06;;;;;;;8.8;6.5;;;;;;;;;;;;;
2019/09/08 10:29:31;;;;;;;5.7;4.6;;;;;;;;;;;;;
2019/09/08 10:31:56;;;;;;;5.4;4.1;;;;;;;;;;;;;
2019/09/08 10:34:21;;;;;;;8;5.5;;;;;;;;;;;;;
2019/09/08 10:36:46;;;;;;;6.2;5;;;;;;;;;;;;;
2019/09/08 10:39:11;;;;;;;6.9;6.2;;;;;;;;;;;;;
2019/09/08 10:41:36;;;;;;;7.7;6.2;;;;;;;;;;;;;
2019/09/08 10:44:02;;;;;;;7.8;5.5;;;;;;;;;;;;;
2019/09/08 10:46:27;;;;;;;7.8;6.3;;;;;;;;;;;;;
2019/09/08 10:48:52;;;;;;;9.4;7.1;;;;;;;;;;;;;
2019/09/08 10:51:17;;;;;;;10.8;6.7;;;;;;;;;;;;;
2019/09/08 10:53:42;;;;;;;7.4;5.9;;;;;;;;;;;;;
2019/09/08 10:56:07;;;;;;;7;5.8;;;;;;;;;;;;;
2019/09/08 10:58:32;;;;;;;8.3;6.1;;;;;;;;;;;;;
2019/09/08 11:00:57;;;;;;;7.8;6.3;;;;;;;;;;;;;
2019/09/08 11:03:22;;;;;;;7.4;6.3;;;;;;;;;;;;;
2019/09/08 11:05:47;;;;;;;8.2;6.9;;;;;;;;;;;;;
2019/09/08 11:08:12;;;;;;;9.8;6.9;;;;;;;;;;;;;
2019/09/08 11:10:37;;;;;;;8.9;6.8;;;;;;;;;;;;;
2019/09/08 11:13:02;;;;;;;8.6;7;;;;;;;;;;;;;
2019/09/08 11:15:27;;;;;;;11.5;7.6;;;;;;;;;;;;;
2019/09/08 11:17:53;;;;;;;10.1;7.3;;;;;;;;;;;;;
2019/09/08 11:20:18;;;;;;;8.5;7;;;;;;;;;;;;;
2019/09/08 11:22:43;;;;;;;9.2;6.9;;;;;;;;;;;;;
2019/09/08 11:25:08;;;;;;;7.9;6.8;;;;;;;;;;;;;
2019/09/08 11:27:33;;;;;;;8.5;6.5;;;;;;;;;;;;;
2019/09/08 11:29:58;;;;;;;6.3;5.4;;;;;;;;;;;;;
2019/09/08 11:32:23;;;;;;;6.8;5.7;;;;;;;;;;;;;
2019/09/08 11:34:48;;;;;;;8.6;7;;;;;;;;;;;;;
2019/09/08 11:37:13;;;;;;;11;8;;;;;;;;;;;;;
2019/09/08 11:39:38;;;;;;;11.5;9.3;;;;;;;;;;;;;
2019/09/08 11:42:04;;;;;;;13;10.3;;;;;;;;;;;;;
2019/09/08 11:44:29;;;;;;;14.3;10.3;;;;;;;;;;;;;
2019/09/08 11:46:54;;;;;;;11.9;9.5;;;;;;;;;;;;;
2019/09/08 11:49:19;;;;;;;11.5;9.7;;;;;;;;;;;;;
2019/09/08 11:51:44;;;;;;;10.7;9.4;;;;;;;;;;;;;
2019/09/08 11:54:09;;;;;;;12.7;10.3;;;;;;;;;;;;;
2019/09/08 11:56:34;;;;;;;12.9;10.7;;;;;;;;;;;;;
2019/09/08 11:59:00;;;;;;;13.8;10.1;;;;;;;;;;;;;
2019/09/08 12:01:25;;;;;;;11.5;9.6;;;;;;;;;;;;;
2019/09/08 12:03:50;;;;;;;13.6;10.2;;;;;;;;;;;;;
2019/09/08 12:06:15;;;;;;;10.7;8.7;;;;;;;;;;;;;
2019/09/08 12:08:40;;;;;;;12.1;9.4;;;;;;;;;;;;;
2019/09/08 12:11:05;;;;;;;11.8;9.5;;;;;;;;;;;;;
2019/09/08 12:13:30;;;;;;;12.8;9.8;;;;;;;;;;;;;
2019/09/08 12:15:56;;;;;;;12.4;9.1;;;;;;;;;;;;;
2019/09/08 12:18:21;;;;;;;11.9;9.6;;;;;;;;;;;;;
2019/09/08 12:20:46;;;;;;;12;9.2;;;;;;;;;;;;;
2019/09/08 12:23:11;;;;;;;11.3;9.3;;;;;;;;;;;;;
2019/09/08 12:25:38;;;;;;;11.1;9.5;;;;;;;;;;;;;
2019/09/08 12:28:01;;;;;;;11.8;8.7;;;;;;;;;;;;;
2019/09/08 12:30:27;;;;;;;9.9;7.9;;;;;;;;;;;;;
2019/09/08 12:32:51;;;;;;;9.8;8.1;;;;;;;;;;;;;
2019/09/08 12:35:16;;;;;;;10.9;8.7;;;;;;;;;;;;;
2019/09/08 12:37:42;;;;;;;11.6;8.7;;;;;;;;;;;;;
2019/09/08 12:40:07;;;;;;;10;8.2;;;;;;;;;;;;;
2019/09/08 12:42:32;;;;;;;10.4;7.8;;;;;;;;;;;;;
2019/09/08 12:44:57;;;;;;;9.4;7.1;;;;;;;;;;;;;
2019/09/08 12:47:22;;;;;;;9.3;6.9;;;;;;;;;;;;;
2019/09/08 12:49:47;;;;;;;7.8;7;;;;;;;;;;;;;
2019/09/08 12:52:12;;;;;;;8;6.8;;;;;;;;;;;;;
2019/09/08 12:54:37;;;;;;;8.2;6.9;;;;;;;;;;;;;
2019/09/08 12:57:03;;;;;;;8.5;7;;;;;;;;;;;;;
2019/09/08 12:59:28;;;;;;;9.9;7.7;;;;;;;;;;;;;
2019/09/08 13:01:53;;;;;;;8.4;7.3;;;;;;;;;;;;;
2019/09/08 13:04:18;;;;;;;7.9;6.8;;;;;;;;;;;;;
2019/09/08 13:06:43;;;;;;;9;7.2;;;;;;;;;;;;;
2019/09/08 13:09:08;;;;;;;13;9.7;;;;;;;;;;;;;
2019/09/08 13:11:33;;;;;;;9.4;7.5;;;;;;;;;;;;;
2019/09/08 13:13:59;;;;;;;9.5;8.1;;;;;;;;;;;;;
2019/09/08 13:16:24;;;;;;;11.2;8.1;;;;;;;;;;;;;
2019/09/08 13:18:49;;;;;;;9.5;7.9;;;;;;;;;;;;;
2019/09/08 13:21:14;;;;;;;9.8;7.4;;;;;;;;;;;;;
2019/09/08 13:23:39;;;;;;;7.6;5.9;;;;;;;;;;;;;
2019/09/08 13:26:04;;;;;;;7.6;6.3;;;;;;;;;;;;;
2019/09/08 13:28:29;;;;;;;7;5.9;;;;;;;;;;;;;
2019/09/08 13:30:54;;;;;;;7.1;6.3;;;;;;;;;;;;;
2019/09/08 13:33:19;;;;;;;9.1;6.8;;;;;;;;;;;;;
2019/09/08 13:35:44;;;;;;;7.5;6.8;;;;;;;;;;;;;
2019/09/08 13:38:09;;;;;;;8.3;6.9;;;;;;;;;;;;;
2019/09/08 13:40:35;;;;;;;9.8;7.5;;;;;;;;;;;;;
2019/09/08 13:43:00;;;;;;;9.9;7.4;;;;;;;;;;;;;
2019/09/08 13:45:25;;;;;;;9.1;7;;;;;;;;;;;;;
2019/09/08 13:47:50;;;;;;;7.7;6.5;;;;;;;;;;;;;
2019/09/08 13:50:15;;;;;;;8.6;6.3;;;;;;;;;;;;;
2019/09/08 13:52:40;;;;;;;7.7;6.6;;;;;;;;;;;;;
2019/09/08 13:55:05;;;;;;;8.7;6.9;;;;;;;;;;;;;
2019/09/08 13:57:30;;;;;;;10;7;;;;;;;;;;;;;
2019/09/08 13:59:56;;;;;;;8.6;6.5;;;;;;;;;;;;;
2019/09/08 14:02:21;;;;;;;8.3;6.5;;;;;;;;;;;;;
2019/09/08 14:04:46;;;;;;;8.2;6.8;;;;;;;;;;;;;
2019/09/08 14:07:11;;;;;;;9;7.4;;;;;;;;;;;;;
2019/09/08 14:09:36;;;;;;;8.7;7.3;;;;;;;;;;;;;
2019/09/08 14:12:01;;;;;;;9.9;7.9;;;;;;;;;;;;;
2019/09/08 14:14:26;;;;;;;10;8.1;;;;;;;;;;;;;
2019/09/08 14:16:51;;;;;;;9.5;8.3;;;;;;;;;;;;;
2019/09/08 14:19:16;;;;;;;10.1;8.2;;;;;;;;;;;;;
2019/09/08 14:21:43;;;;;;;12;8.8;;;;;;;;;;;;;
2019/09/08 14:24:07;;;;;;;11.5;9;;;;;;;;;;;;;
2019/09/08 14:26:32;;;;;;;11.6;8.5;;;;;;;;;;;;;
2019/09/08 14:28:57;;;;;;;11.8;9.3;;;;;;;;;;;;;
2019/09/08 14:31:22;;;;;;;11.5;9.3;;;;;;;;;;;;;
2019/09/08 14:33:47;;;;;;;12;8.9;;;;;;;;;;;;;
2019/09/08 14:36:12;;;;;;;12.5;10.3;;;;;;;;;;;;;
2019/09/08 14:38:37;;;;;;;15.2;10.3;;;;;;;;;;;;;
2019/09/08 14:41:02;;;;;;;12;9.6;;;;;;;;;;;;;
2019/09/08 14:43:27;;;;;;;11.5;8.7;;;;;;;;;;;;;
2019/09/08 14:45:53;;;;;;;11.7;8.7;;;;;;;;;;;;;
2019/09/08 14:48:18;;;;;;;12.5;9;;;;;;;;;;;;;
2019/09/08 14:50:43;;;;;;;18.7;16.1;;;;;;;;;;;;;
2019/09/08 14:53:08;;;;;;;13.1;9.9;;;;;;;;;;;;;
2019/09/08 14:55:33;;;;;;;18.7;13.9;;;;;;;;;;;;;
2019/09/08 14:57:58;;;;;;;13;9.4;;;;;;;;;;;;;
2019/09/08 15:00:23;;;;;;;14.6;10.8;;;;;;;;;;;;;
2019/09/08 15:02:48;;;;;;;12.4;9.7;;;;;;;;;;;;;
2019/09/08 15:05:14;;;;;;;10.8;9.1;;;;;;;;;;;;;
2019/09/08 15:07:39;;;;;;;10.8;8.4;;;;;;;;;;;;;
2019/09/08 15:10:04;;;;;;;12.2;9.5;;;;;;;;;;;;;
2019/09/08 15:12:29;;;;;;;12.2;9.1;;;;;;;;;;;;;
2019/09/08 15:14:54;;;;;;;11.9;9.6;;;;;;;;;;;;;
2019/09/08 15:17:19;;;;;;;12.6;10;;;;;;;;;;;;;
2019/09/08 15:19:44;;;;;;;14.6;10.6;;;;;;;;;;;;;
2019/09/08 15:22:10;;;;;;;14;10.3;;;;;;;;;;;;;
2019/09/08 15:24:35;;;;;;;17;11.1;;;;;;;;;;;;;
2019/09/08 15:27:00;;;;;;;14.2;10.7;;;;;;;;;;;;;
2019/09/08 15:29:25;;;;;;;15.3;11.3;;;;;;;;;;;;;
2019/09/08 15:31:50;;;;;;;13.1;10.6;;;;;;;;;;;;;
2019/09/08 15:34:15;;;;;;;14.3;11;;;;;;;;;;;;;
2019/09/08 15:36:40;;;;;;;12.6;9.6;;;;;;;;;;;;;
2019/09/08 15:39:06;;;;;;;13.5;10.6;;;;;;;;;;;;;
2019/09/08 15:41:31;;;;;;;14.4;10.8;;;;;;;;;;;;;
2019/09/08 15:43:56;;;;;;;10.6;9.1;;;;;;;;;;;;;
2019/09/08 15:46:21;;;;;;;10.7;8.6;;;;;;;;;;;;;
2019/09/08 15:48:46;;;;;;;10.1;7.8;;;;;;;;;;;;;
2019/09/08 15:51:11;;;;;;;10.5;7.5;;;;;;;;;;;;;
2019/09/08 15:53:36;;;;;;;10.5;7.1;;;;;;;;;;;;;
2019/09/08 15:56:01;;;;;;;10.6;7.6;;;;;;;;;;;;;
2019/09/08 15:58:27;;;;;;;11.6;8.4;;;;;;;;;;;;;
2019/09/08 16:00:52;;;;;;;11.4;8.2;;;;;;;;;;;;;
2019/09/08 16:03:17;;;;;;;11.1;8.4;;;;;;;;;;;;;
2019/09/08 16:05:42;;;;;;;13.3;9.5;;;;;;;;;;;;;
2019/09/08 16:08:07;;;;;;;11.8;9.4;;;;;;;;;;;;;
2019/09/08 16:10:32;;;;;;;11.1;8;;;;;;;;;;;;;
2019/09/08 16:12:57;;;;;;;10;7.7;;;;;;;;;;;;;
2019/09/08 16:15:22;;;;;;;10.5;8.2;;;;;;;;;;;;;
2019/09/08 16:17:48;;;;;;;10.8;8.6;;;;;;;;;;;;;
2019/09/08 16:20:13;;;;;;;13.2;10.1;;;;;;;;;;;;;
2019/09/08 16:22:37;;;;;;;13;9.5;;;;;;;;;;;;;
2019/09/08 16:25:03;;;;;;;11.5;8.1;;;;;;;;;;;;;
2019/09/08 16:27:28;;;;;;;12;8.5;;;;;;;;;;;;;
2019/09/08 16:29:53;;;;;;;9.2;7.3;;;;;;;;;;;;;
2019/09/08 16:32:18;;;;;;;9.5;7.3;;;;;;;;;;;;;
2019/09/08 16:34:43;;;;;;;9.7;6.6;;;;;;;;;;;;;
2019/09/08 16:37:08;;;;;;;8.5;7.2;;;;;;;;;;;;;
2019/09/08 16:39:33;;;;;;;8.6;6.6;;;;;;;;;;;;;
2019/09/08 16:41:58;;;;;;;9.3;6.7;;;;;;;;;;;;;
2019/09/08 16:44:24;;;;;;;8.5;6.7;;;;;;;;;;;;;
2019/09/08 16:46:49;;;;;;;6.9;6.2;;;;;;;;;;;;;
2019/09/08 16:49:14;;;;;;;8.7;6.8;;;;;;;;;;;;;
2019/09/08 16:51:39;;;;;;;7.5;6.4;;;;;;;;;;;;;
2019/09/08 16:54:04;;;;;;;8.5;6.9;;;;;;;;;;;;;
2019/09/08 16:56:29;;;;;;;8.1;6.4;;;;;;;;;;;;;
2019/09/08 16:58:54;;;;;;;8.7;6.8;;;;;;;;;;;;;
2019/09/08 17:01:19;;;;;;;7.6;6.3;;;;;;;;;;;;;
2019/09/08 17:03:44;;;;;;;8;5.9;;;;;;;;;;;;;
2019/09/08 17:06:09;;;;;;;7.3;5.8;;;;;;;;;;;;;
2019/09/08 17:08:35;;;;;;;8;6.3;;;;;;;;;;;;;
2019/09/08 17:11:00;;;;;;;7.4;6;;;;;;;;;;;;;
2019/09/08 17:13:25;;;;;;;8.7;6.1;;;;;;;;;;;;;
2019/09/08 17:15:50;;;;;;;7.8;6.5;;;;;;;;;;;;;
2019/09/08 17:18:15;;;;;;;8.6;6.4;;;;;;;;;;;;;
2019/09/08 17:20:40;;;;;;;9.1;7.6;;;;;;;;;;;;;
2019/09/08 17:23:05;;;;;;;8.1;7.2;;;;;;;;;;;;;
2019/09/08 17:25:30;;;;;;;9.3;7.8;;;;;;;;;;;;;
2019/09/08 17:27:55;;;;;;;8.9;7.8;;;;;;;;;;;;;
2019/09/08 17:30:21;;;;;;;10.4;8.6;;;;;;;;;;;;;
2019/09/08 17:32:46;;;;;;;10;8.3;;;;;;;;;;;;;
2019/09/08 17:35:11;;;;;;;11;7.8;;;;;;;;;;;;;
2019/09/08 17:37:36;;;;;;;11.6;8.2;;;;;;;;;;;;;
2019/09/08 17:40:01;;;;;;;10.6;9.2;;;;;;;;;;;;;
2019/09/08 17:42:26;;;;;;;11.3;9.3;;;;;;;;;;;;;
2019/09/08 17:44:51;;;;;;;14;9.3;;;;;;;;;;;;;
2019/09/08 17:47:16;;;;;;;12.6;9.9;;;;;;;;;;;;;
2019/09/08 17:49:41;;;;;;;11.8;9.4;;;;;;;;;;;;;
2019/09/08 17:52:06;;;;;;;13.1;10;;;;;;;;;;;;;
2019/09/08 17:54:31;;;;;;;13.5;10;;;;;;;;;;;;;
2019/09/08 17:56:56;;;;;;;13.5;10.3;;;;;;;;;;;;;
2019/09/08 17:59:22;;;;;;;12;9.6;;;;;;;;;;;;;
2019/09/08 18:01:47;;;;;;;13.8;10.5;;;;;;;;;;;;;
2019/09/08 18:04:12;;;;;;;14.2;10.4;;;;;;;;;;;;;
2019/09/08 18:06:37;;;;;;;13.7;9.9;;;;;;;;;;;;;
2019/09/08 18:09:02;;;;;;;15.9;10.5;;;;;;;;;;;;;
2019/09/08 18:11:27;;;;;;;13.6;10.1;;;;;;;;;;;;;
2019/09/08 18:13:52;;;;;;;12;10.1;;;;;;;;;;;;;
2019/09/08 18:16:17;;;;;;;14;10.1;;;;;;;;;;;;;
2019/09/08 18:18:43;;;;;;;12.2;9.7;;;;;;;;;;;;;
2019/09/08 18:21:08;;;;;;;13;9.8;;;;;;;;;;;;;
2019/09/08 18:23:33;;;;;;;12.4;10;;;;;;;;;;;;;
2019/09/08 18:25:58;;;;;;;13.3;9.2;;;;;;;;;;;;;
2019/09/08 18:28:23;;;;;;;10.5;8.8;;;;;;;;;;;;;
2019/09/08 18:30:48;;;;;;;9.5;8;;;;;;;;;;;;;
2019/09/08 18:33:13;;;;;;;10.9;8.7;;;;;;;;;;;;;
2019/09/08 18:35:38;;;;;;;11.1;9.4;;;;;;;;;;;;;
2019/09/08 18:38:03;;;;;;;12.4;9.6;;;;;;;;;;;;;
2019/09/08 18:40:28;;;;;;;12.4;10.2;;;;;;;;;;;;;
2019/09/08 18:42:53;;;;;;;16.3;10.6;;;;;;;;;;;;;